sensor_id;sensor_type;location;lat;lon;timestamp;pressure;altitude;pressure_sealevel;temperature;humidity
11912;BME280;6016;41.928;25.556;2023-02-19T00:01:50;99259.09;;;9.91;66.72
11912;BME280;6016;41.928;25.556;2023-02-19T00:04:19;99175.88;;;9.47;66.05
11912;BME280;6016;41.928;25.556;2023-02-19T00:06:48;99278.34;;;10.12;66.50
11912;BME280;6016;41.928;25.556;2023-02-19T00:09:16;99260.69;;;10.03;66.28
11912;BME280;6016;41.928;25.556;2023-02-19T00:11:44;99279.75;;;10.17;66.33
11912;BME280;6016;41.928;25.556;2023-02-19T00:14:16;99278.47;;;10.11;65.90
11912;BME280;6016;41.928;25.556;2023-02-19T00:16:43;99250.19;;;9.82;66.83
11912;BME280;6016;41.928;25.556;2023-02-19T00:19:11;99283.34;;;10.16;66.25
11912;BME280;6016;41.928;25.556;2023-02-19T00:21:39;99265.72;;;10.06;66.28
11912;BME280;6016;41.928;25.556;2023-02-19T00:24:06;99281.69;;;10.14;66.31
11912;BME280;6016;41.928;25.556;2023-02-19T00:26:33;99224.81;;;9.81;66.82
11912;BME280;6016;41.928;25.556;2023-02-19T00:29:00;99281.69;;;10.14;66.68
11912;BME280;6016;41.928;25.556;2023-02-19T00:31:31;99059.97;;;8.75;66.76
11912;BME280;6016;41.928;25.556;2023-02-19T00:34:00;99277.94;;;10.07;66.15
11912;BME280;6016;41.928;25.556;2023-02-19T00:36:28;99278.03;;;10.06;66.58
11912;BME280;6016;41.928;25.556;2023-02-19T00:38:55;99255.13;;;9.96;67.16
11912;BME280;6016;41.928;25.556;2023-02-19T00:41:23;99269.94;;;9.97;66.66
11912;BME280;6016;41.928;25.556;2023-02-19T00:43:51;99272.53;;;9.88;66.64
11912;BME280;6016;41.928;25.556;2023-02-19T00:46:21;99257.72;;;9.87;66.72
11912;BME280;6016;41.928;25.556;2023-02-19T00:48:49;99254.66;;;9.81;66.98
11912;BME280;6016;41.928;25.556;2023-02-19T00:51:17;99214.22;;;9.61;66.55
11912;BME280;6016;41.928;25.556;2023-02-19T00:53:44;99249.50;;;9.80;66.96
11912;BME280;6016;41.928;25.556;2023-02-19T00:56:11;99278.59;;;9.78;67.53
11912;BME280;6016;41.928;25.556;2023-02-19T00:58:38;99240.63;;;9.81;67.18
11912;BME280;6016;41.928;25.556;2023-02-19T01:01:06;99234.38;;;9.82;66.93
11912;BME280;6016;41.928;25.556;2023-02-19T01:03:33;99140.03;;;9.25;67.13
11912;BME280;6016;41.928;25.556;2023-02-19T01:06:02;99224.81;;;9.81;66.98
11912;BME280;6016;41.928;25.556;2023-02-19T01:08:29;99175.91;;;9.57;67.06
11912;BME280;6016;41.928;25.556;2023-02-19T01:10:56;99193.59;;;9.76;67.13
11912;BME280;6016;41.928;25.556;2023-02-19T01:13:23;99215.81;;;9.83;67.47
11912;BME280;6016;41.928;25.556;2023-02-19T01:15:50;99150.94;;;9.51;66.55
11912;BME280;6016;41.928;25.556;2023-02-19T01:18:17;99198.09;;;9.85;67.24
11912;BME280;6016;41.928;25.556;2023-02-19T01:20:44;99145.66;;;9.51;67.16
11912;BME280;6016;41.928;25.556;2023-02-19T01:23:12;99191.72;;;9.88;67.19
11912;BME280;6016;41.928;25.556;2023-02-19T01:25:40;99172.41;;;9.78;66.51
11912;BME280;6016;41.928;25.556;2023-02-19T01:28:07;99206.69;;;9.88;66.88
11912;BME280;6016;41.928;25.556;2023-02-19T01:30:34;99181.31;;;9.55;67.25
11912;BME280;6016;41.928;25.556;2023-02-19T01:33:02;99209.13;;;9.79;67.10
11912;BME280;6016;41.928;25.556;2023-02-19T01:35:29;99207.00;;;9.63;66.62
11912;BME280;6016;41.928;25.556;2023-02-19T01:37:56;99212.34;;;9.83;67.07
11912;BME280;6016;41.928;25.556;2023-02-19T01:40:24;99188.28;;;9.66;66.99
11912;BME280;6016;41.928;25.556;2023-02-19T01:42:51;99207.94;;;9.83;67.19
11912;BME280;6016;41.928;25.556;2023-02-19T01:45:23;99205.03;;;9.87;67.27
11912;BME280;6016;41.928;25.556;2023-02-19T01:48:11;99190.88;;;9.88;67.00
11912;BME280;6016;41.928;25.556;2023-02-19T01:50:42;99146.91;;;9.47;67.12
11912;BME280;6016;41.928;25.556;2023-02-19T01:53:11;99195.72;;;9.82;66.89
11912;BME280;6016;41.928;25.556;2023-02-19T01:55:43;99188.47;;;9.75;66.91
11912;BME280;6016;41.928;25.556;2023-02-19T01:58:11;99042.16;;;8.79;67.00
11912;BME280;6016;41.928;25.556;2023-02-19T02:00:40;99195.22;;;9.67;65.90
11912;BME280;6016;41.928;25.556;2023-02-19T02:03:07;99199.25;;;9.19;67.95
11912;BME280;6016;41.928;25.556;2023-02-19T02:05:46;99021.09;;;8.03;68.95
11912;BME280;6016;41.928;25.556;2023-02-19T02:08:16;99188.81;;;9.08;67.69
11912;BME280;6016;41.928;25.556;2023-02-19T02:11:02;99200.88;;;9.10;68.59
11912;BME280;6016;41.928;25.556;2023-02-19T02:13:32;99186.81;;;9.21;68.04
11912;BME280;6016;41.928;25.556;2023-02-19T02:16:07;99162.84;;;9.24;66.24
11912;BME280;6016;41.928;25.556;2023-02-19T02:18:48;99188.56;;;9.63;65.24
11912;BME280;6016;41.928;25.556;2023-02-19T02:21:34;99196.91;;;9.68;65.11
11912;BME280;6016;41.928;25.556;2023-02-19T02:24:19;99187.44;;;9.66;64.80
11912;BME280;6016;41.928;25.556;2023-02-19T02:27:05;99191.06;;;9.65;65.24
11912;BME280;6016;41.928;25.556;2023-02-19T02:29:54;99192.31;;;9.70;65.58
11912;BME280;6016;41.928;25.556;2023-02-19T02:32:32;99164.03;;;9.63;65.89
11912;BME280;6016;41.928;25.556;2023-02-19T02:35:06;99118.03;;;9.36;65.64
11912;BME280;6016;41.928;25.556;2023-02-19T02:37:37;99187.91;;;9.71;65.66
11912;BME280;6016;41.928;25.556;2023-02-19T02:40:06;99188.59;;;9.73;65.90
11912;BME280;6016;41.928;25.556;2023-02-19T02:42:34;99193.75;;;9.75;65.78
11912;BME280;6016;41.928;25.556;2023-02-19T02:45:25;99190.97;;;9.76;65.02
11912;BME280;6016;41.928;25.556;2023-02-19T02:48:09;99174.00;;;9.38;64.91
11912;BME280;6016;41.928;25.556;2023-02-19T02:50:41;99208.41;;;9.67;65.43
11912;BME280;6016;41.928;25.556;2023-02-19T02:53:13;99211.72;;;9.69;65.45
11912;BME280;6016;41.928;25.556;2023-02-19T02:55:59;99190.78;;;9.37;65.43
11912;BME280;6016;41.928;25.556;2023-02-19T02:58:28;99217.22;;;9.56;65.62
11912;BME280;6016;41.928;25.556;2023-02-19T03:01:01;99152.59;;;9.21;65.88
11912;BME280;6016;41.928;25.556;2023-02-19T03:03:51;99178.16;;;9.31;65.59
11912;BME280;6016;41.928;25.556;2023-02-19T03:06:20;99206.16;;;9.63;65.42
11912;BME280;6016;41.928;25.556;2023-02-19T03:08:52;99206.00;;;9.54;66.42
11912;BME280;6016;41.928;25.556;2023-02-19T03:11:20;99205.09;;;9.44;65.81
11912;BME280;6016;41.928;25.556;2023-02-19T03:14:08;99185.50;;;9.37;66.96
11912;BME280;6016;41.928;25.556;2023-02-19T03:16:58;99215.13;;;9.60;65.98
11912;BME280;6016;41.928;25.556;2023-02-19T03:19:48;99218.09;;;9.67;66.08
11912;BME280;6016;41.928;25.556;2023-02-19T03:22:18;99206.00;;;9.54;65.25
11912;BME280;6016;41.928;25.556;2023-02-19T03:24:51;99215.63;;;9.75;65.23
11912;BME280;6016;41.928;25.556;2023-02-19T03:27:38;99215.22;;;9.70;65.12
11912;BME280;6016;41.928;25.556;2023-02-19T03:30:11;99199.56;;;9.47;64.95
11912;BME280;6016;41.928;25.556;2023-02-19T03:32:43;99185.38;;;9.38;66.13
11912;BME280;6016;41.928;25.556;2023-02-19T03:35:13;99181.59;;;9.31;65.84
11912;BME280;6016;41.928;25.556;2023-02-19T03:37:45;99227.03;;;9.12;67.73
11912;BME280;6016;41.928;25.556;2023-02-19T03:40:13;99210.13;;;9.26;67.01
11912;BME280;6016;41.928;25.556;2023-02-19T03:42:52;99210.97;;;8.94;68.21
11912;BME280;6016;41.928;25.556;2023-02-19T03:45:44;99213.34;;;8.97;69.47
11912;BME280;6016;41.928;25.556;2023-02-19T03:48:23;99218.34;;;8.79;68.68
11912;BME280;6016;41.928;25.556;2023-02-19T03:50:57;99222.06;;;8.76;68.83
11912;BME280;6016;41.928;25.556;2023-02-19T03:53:31;99222.13;;;8.86;69.23
11912;BME280;6016;41.928;25.556;2023-02-19T03:56:07;99208.97;;;8.86;68.21
11912;BME280;6016;41.928;25.556;2023-02-19T03:58:42;99192.41;;;9.07;69.86
11912;BME280;6016;41.928;25.556;2023-02-19T04:01:16;99105.06;;;8.38;68.47
11912;BME280;6016;41.928;25.556;2023-02-19T04:03:50;99218.81;;;9.05;68.36
11912;BME280;6016;41.928;25.556;2023-02-19T04:06:23;99176.66;;;8.74;67.50
11912;BME280;6016;41.928;25.556;2023-02-19T04:08:52;99216.97;;;9.17;69.65
11912;BME280;6016;41.928;25.556;2023-02-19T04:11:21;99210.28;;;9.13;67.59
11912;BME280;6016;41.928;25.556;2023-02-19T04:13:53;99213.44;;;9.07;69.33
11912;BME280;6016;41.928;25.556;2023-02-19T04:16:22;99208.22;;;8.95;68.33
11912;BME280;6016;41.928;25.556;2023-02-19T04:18:53;99165.59;;;8.80;71.02
11912;BME280;6016;41.928;25.556;2023-02-19T04:21:21;99179.16;;;8.64;70.72
11912;BME280;6016;41.928;25.556;2023-02-19T04:23:49;99210.38;;;8.90;69.83
11912;BME280;6016;41.928;25.556;2023-02-19T04:26:19;99210.72;;;8.97;69.41
11912;BME280;6016;41.928;25.556;2023-02-19T04:28:48;99215.75;;;9.00;69.22
11912;BME280;6016;41.928;25.556;2023-02-19T04:31:14;99217.53;;;9.21;68.38
11912;BME280;6016;41.928;25.556;2023-02-19T04:33:41;99226.03;;;9.24;67.93
11912;BME280;6016;41.928;25.556;2023-02-19T04:36:10;99158.09;;;8.97;67.06
11912;BME280;6016;41.928;25.556;2023-02-19T04:38:37;99170.81;;;9.13;66.20
11912;BME280;6016;41.928;25.556;2023-02-19T04:41:04;99151.75;;;8.99;65.62
11912;BME280;6016;41.928;25.556;2023-02-19T04:43:31;99244.91;;;9.51;65.76
11912;BME280;6016;41.928;25.556;2023-02-19T04:45:59;99242.97;;;9.53;65.71
11912;BME280;6016;41.928;25.556;2023-02-19T04:48:27;99252.16;;;9.59;65.53
11912;BME280;6016;41.928;25.556;2023-02-19T04:50:54;99247.59;;;9.61;65.28
11912;BME280;6016;41.928;25.556;2023-02-19T04:53:22;99176.66;;;9.17;65.33
11912;BME280;6016;41.928;25.556;2023-02-19T04:55:49;99220.97;;;9.33;65.13
11912;BME280;6016;41.928;25.556;2023-02-19T04:58:18;99268.53;;;9.62;64.81
11912;BME280;6016;41.928;25.556;2023-02-19T05:00:45;99207.53;;;9.14;64.50
11912;BME280;6016;41.928;25.556;2023-02-19T05:03:12;99288.19;;;9.58;65.09
11912;BME280;6016;41.928;25.556;2023-02-19T05:05:39;99279.78;;;9.43;65.69
11912;BME280;6016;41.928;25.556;2023-02-19T05:08:06;99279.06;;;9.41;67.62
11912;BME280;6016;41.928;25.556;2023-02-19T05:10:34;99280.06;;;9.28;66.43
11912;BME280;6016;41.928;25.556;2023-02-19T05:13:01;99290.38;;;9.32;66.45
11912;BME280;6016;41.928;25.556;2023-02-19T05:15:27;99295.00;;;9.39;65.89
11912;BME280;6016;41.928;25.556;2023-02-19T05:17:54;99175.72;;;8.64;65.73
11912;BME280;6016;41.928;25.556;2023-02-19T05:20:21;98894.13;;;6.72;66.09
11912;BME280;6016;41.928;25.556;2023-02-19T05:22:48;99286.13;;;9.19;66.54
11912;BME280;6016;41.928;25.556;2023-02-19T05:25:15;99313.09;;;9.33;66.80
11912;BME280;6016;41.928;25.556;2023-02-19T05:27:43;99310.63;;;9.41;66.42
11912;BME280;6016;41.928;25.556;2023-02-19T05:30:10;99314.25;;;9.40;65.30
11912;BME280;6016;41.928;25.556;2023-02-19T05:32:37;99286.84;;;9.10;65.66
11912;BME280;6016;41.928;25.556;2023-02-19T05:35:05;99276.88;;;8.92;66.61
11912;BME280;6016;41.928;25.556;2023-02-19T05:37:32;99334.84;;;9.35;67.06
11912;BME280;6016;41.928;25.556;2023-02-19T05:39:58;99340.13;;;9.35;66.88
11912;BME280;6016;41.928;25.556;2023-02-19T05:42:25;99340.56;;;9.40;66.64
11912;BME280;6016;41.928;25.556;2023-02-19T05:44:53;99335.78;;;9.45;66.08
11912;BME280;6016;41.928;25.556;2023-02-19T05:47:20;99342.19;;;9.52;65.96
11912;BME280;6016;41.928;25.556;2023-02-19T05:49:47;99348.75;;;9.58;65.39
11912;BME280;6016;41.928;25.556;2023-02-19T05:52:16;99345.47;;;9.66;65.65
11912;BME280;6016;41.928;25.556;2023-02-19T05:54:43;99207.44;;;8.83;65.50
11912;BME280;6016;41.928;25.556;2023-02-19T05:57:10;99242.25;;;9.08;65.19
11912;BME280;6016;41.928;25.556;2023-02-19T05:59:37;99328.69;;;9.67;65.27
11912;BME280;6016;41.928;25.556;2023-02-19T06:02:05;99355.78;;;9.90;64.75
11912;BME280;6016;41.928;25.556;2023-02-19T06:04:32;99332.00;;;9.80;64.24
11912;BME280;6016;41.928;25.556;2023-02-19T06:06:58;99351.91;;;9.94;64.56
11912;BME280;6016;41.928;25.556;2023-02-19T06:09:25;99358.03;;;9.95;64.50
11912;BME280;6016;41.928;25.556;2023-02-19T06:11:52;99365.13;;;10.04;64.45
11912;BME280;6016;41.928;25.556;2023-02-19T06:14:19;99255.63;;;9.38;63.82
11912;BME280;6016;41.928;25.556;2023-02-19T06:16:46;99354.16;;;9.99;64.25
11912;BME280;6016;41.928;25.556;2023-02-19T06:19:14;99356.72;;;10.10;64.30
11912;BME280;6016;41.928;25.556;2023-02-19T06:21:41;99342.47;;;10.13;64.11
11912;BME280;6016;41.928;25.556;2023-02-19T06:24:08;99238.69;;;9.52;63.62
11912;BME280;6016;41.928;25.556;2023-02-19T06:26:35;99292.06;;;9.85;61.98
11912;BME280;6016;41.928;25.556;2023-02-19T06:29:04;99355.69;;;10.23;63.11
11912;BME280;6016;41.928;25.556;2023-02-19T06:31:30;99347.50;;;10.26;61.88
11912;BME280;6016;41.928;25.556;2023-02-19T06:33:57;99350.06;;;10.37;62.67
11912;BME280;6016;41.928;25.556;2023-02-19T06:36:25;99351.25;;;10.54;61.89
11912;BME280;6016;41.928;25.556;2023-02-19T06:38:52;99345.63;;;10.69;60.37
11912;BME280;6016;41.928;25.556;2023-02-19T06:41:19;99318.53;;;10.57;61.12
11912;BME280;6016;41.928;25.556;2023-02-19T06:43:46;99348.63;;;10.95;60.19
11912;BME280;6016;41.928;25.556;2023-02-19T06:46:13;99336.22;;;10.86;61.22
11912;BME280;6016;41.928;25.556;2023-02-19T06:48:41;99342.66;;;11.13;60.69
11912;BME280;6016;41.928;25.556;2023-02-19T06:51:10;99326.81;;;11.13;59.84
11912;BME280;6016;41.928;25.556;2023-02-19T06:53:39;99351.56;;;11.51;59.31
11912;BME280;6016;41.928;25.556;2023-02-19T06:56:19;99350.44;;;11.74;59.27
11912;BME280;6016;41.928;25.556;2023-02-19T06:58:46;99346.38;;;12.09;58.90
11912;BME280;6016;41.928;25.556;2023-02-19T07:01:13;99354.53;;;12.63;58.14
11912;BME280;6016;41.928;25.556;2023-02-19T07:03:40;99298.00;;;13.73;53.47
11912;BME280;6016;41.928;25.556;2023-02-19T07:06:07;99350.03;;;15.13;51.13
11912;BME280;6016;41.928;25.556;2023-02-19T07:08:34;99346.94;;;16.57;47.61
11912;BME280;6016;41.928;25.556;2023-02-19T07:11:02;99332.31;;;18.17;44.05
11912;BME280;6016;41.928;25.556;2023-02-19T07:13:29;99342.56;;;18.58;42.92
11912;BME280;6016;41.928;25.556;2023-02-19T07:15:57;99285.44;;;17.99;43.84
11912;BME280;6016;41.928;25.556;2023-02-19T07:18:25;99299.00;;;19.16;41.25
11912;BME280;6016;41.928;25.556;2023-02-19T07:20:52;99299.56;;;20.12;39.83
11912;BME280;6016;41.928;25.556;2023-02-19T07:23:18;99340.97;;;20.93;36.42
11912;BME280;6016;41.928;25.556;2023-02-19T07:25:45;99335.09;;;21.65;34.07
11912;BME280;6016;41.928;25.556;2023-02-19T07:28:13;99312.94;;;20.47;35.33
11912;BME280;6016;41.928;25.556;2023-02-19T07:30:40;99322.00;;;19.54;35.19
11912;BME280;6016;41.928;25.556;2023-02-19T07:33:09;99335.75;;;19.29;35.86
11912;BME280;6016;41.928;25.556;2023-02-19T07:35:36;99187.00;;;18.84;33.50
11912;BME280;6016;41.928;25.556;2023-02-19T07:38:03;99324.97;;;20.72;31.76
11912;BME280;6016;41.928;25.556;2023-02-19T07:40:30;99328.53;;;20.79;34.09
11912;BME280;6016;41.928;25.556;2023-02-19T07:42:58;99329.41;;;20.44;33.51
11912;BME280;6016;41.928;25.556;2023-02-19T07:45:28;99327.41;;;20.18;33.05
11912;BME280;6016;41.928;25.556;2023-02-19T07:47:55;99331.00;;;20.32;33.87
11912;BME280;6016;41.928;25.556;2023-02-19T07:50:22;99320.03;;;20.27;34.70
11912;BME280;6016;41.928;25.556;2023-02-19T07:52:49;99289.34;;;20.29;32.70
11912;BME280;6016;41.928;25.556;2023-02-19T07:55:16;99312.25;;;20.80;31.71
11912;BME280;6016;41.928;25.556;2023-02-19T07:57:42;99258.31;;;20.48;33.39
11912;BME280;6016;41.928;25.556;2023-02-19T08:00:10;99304.44;;;20.86;31.96
11912;BME280;6016;41.928;25.556;2023-02-19T08:02:38;99322.38;;;20.36;32.38
11912;BME280;6016;41.928;25.556;2023-02-19T08:05:23;99292.16;;;20.14;32.58
11912;BME280;6016;41.928;25.556;2023-02-19T08:07:50;99298.06;;;20.45;32.29
11912;BME280;6016;41.928;25.556;2023-02-19T08:10:17;99313.34;;;20.44;32.86
11912;BME280;6016;41.928;25.556;2023-02-19T08:13:02;99307.19;;;21.13;31.63
11912;BME280;6016;41.928;25.556;2023-02-19T08:15:51;98830.38;;;18.45;31.08
11912;BME280;6016;41.928;25.556;2023-02-19T08:18:23;99186.78;;;20.49;31.50
11912;BME280;6016;41.928;25.556;2023-02-19T08:20:50;99290.47;;;21.24;31.96
11912;BME280;6016;41.928;25.556;2023-02-19T08:23:18;99283.19;;;20.91;31.15
11912;BME280;6016;41.928;25.556;2023-02-19T08:25:46;99278.75;;;20.63;32.01
11912;BME280;6016;41.928;25.556;2023-02-19T08:28:13;99281.53;;;20.83;31.44
11912;BME280;6016;41.928;25.556;2023-02-19T08:30:42;99185.50;;;19.89;32.97
11912;BME280;6016;41.928;25.556;2023-02-19T08:33:11;99280.94;;;20.39;32.25
11912;BME280;6016;41.928;25.556;2023-02-19T08:35:39;99284.94;;;20.57;31.56
11912;BME280;6016;41.928;25.556;2023-02-19T08:38:07;99237.31;;;20.52;32.31
11912;BME280;6016;41.928;25.556;2023-02-19T08:40:36;99274.97;;;20.92;32.77
11912;BME280;6016;41.928;25.556;2023-02-19T08:43:04;99279.31;;;21.00;31.37
11912;BME280;6016;41.928;25.556;2023-02-19T08:45:31;99281.91;;;20.80;31.17
11912;BME280;6016;41.928;25.556;2023-02-19T08:47:59;99191.97;;;20.02;32.66
11912;BME280;6016;41.928;25.556;2023-02-19T08:50:26;99283.13;;;20.77;32.13
11912;BME280;6016;41.928;25.556;2023-02-19T08:52:57;99220.19;;;20.53;31.38
11912;BME280;6016;41.928;25.556;2023-02-19T08:55:24;99190.63;;;20.26;31.00
11912;BME280;6016;41.928;25.556;2023-02-19T08:57:51;99288.13;;;20.80;31.15
11912;BME280;6016;41.928;25.556;2023-02-19T09:00:18;99270.47;;;21.13;31.27
11912;BME280;6016;41.928;25.556;2023-02-19T09:02:45;99265.28;;;21.25;30.86
11912;BME280;6016;41.928;25.556;2023-02-19T09:05:13;99284.91;;;21.46;30.32
11912;BME280;6016;41.928;25.556;2023-02-19T09:07:41;98612.66;;;16.66;31.44
11912;BME280;6016;41.928;25.556;2023-02-19T09:10:09;99227.47;;;20.79;30.56
11912;BME280;6016;41.928;25.556;2023-02-19T09:12:37;99243.94;;;20.70;30.62
11912;BME280;6016;41.928;25.556;2023-02-19T09:15:05;99286.63;;;20.71;30.53
11912;BME280;6016;41.928;25.556;2023-02-19T09:17:32;99296.94;;;20.74;30.70
11912;BME280;6016;41.928;25.556;2023-02-19T09:19:59;99290.06;;;20.51;30.39
11912;BME280;6016;41.928;25.556;2023-02-19T09:22:28;99265.03;;;20.24;31.18
11912;BME280;6016;41.928;25.556;2023-02-19T09:24:55;99273.63;;;20.13;32.36
11912;BME280;6016;41.928;25.556;2023-02-19T09:27:23;98795.69;;;17.31;31.67
11912;BME280;6016;41.928;25.556;2023-02-19T09:29:50;99285.69;;;20.44;31.79
11912;BME280;6016;41.928;25.556;2023-02-19T09:32:17;99260.44;;;20.66;30.74
11912;BME280;6016;41.928;25.556;2023-02-19T09:34:44;99284.22;;;20.90;31.50
11912;BME280;6016;41.928;25.556;2023-02-19T09:37:11;99277.25;;;21.22;31.03
11912;BME280;6016;41.928;25.556;2023-02-19T09:39:37;99273.56;;;21.50;30.62
11912;BME280;6016;41.928;25.556;2023-02-19T09:42:11;99245.72;;;21.25;30.28
11912;BME280;6016;41.928;25.556;2023-02-19T09:44:43;99249.00;;;21.20;31.95
11912;BME280;6016;41.928;25.556;2023-02-19T09:47:15;99269.00;;;21.31;30.66
11912;BME280;6016;41.928;25.556;2023-02-19T09:49:45;99269.22;;;21.36;32.35
11912;BME280;6016;41.928;25.556;2023-02-19T09:52:19;99212.25;;;21.07;31.71
11912;BME280;6016;41.928;25.556;2023-02-19T09:54:50;98820.78;;;18.22;32.31
11912;BME280;6016;41.928;25.556;2023-02-19T09:57:22;99233.03;;;20.71;31.09
11912;BME280;6016;41.928;25.556;2023-02-19T09:59:56;99263.00;;;20.88;31.60
11912;BME280;6016;41.928;25.556;2023-02-19T10:02:25;99139.72;;;20.19;32.06
11912;BME280;6016;41.928;25.556;2023-02-19T10:04:56;99275.81;;;21.20;31.68
11912;BME280;6016;41.928;25.556;2023-02-19T10:07:26;99223.19;;;20.99;31.52
11912;BME280;6016;41.928;25.556;2023-02-19T10:09:59;99194.56;;;20.37;31.75
11912;BME280;6016;41.928;25.556;2023-02-19T10:12:28;99272.13;;;21.28;31.43
11912;BME280;6016;41.928;25.556;2023-02-19T10:14:59;99268.81;;;21.26;32.65
11912;BME280;6016;41.928;25.556;2023-02-19T10:17:29;99264.06;;;21.61;32.03
11912;BME280;6016;41.928;25.556;2023-02-19T10:19:59;99162.94;;;20.88;30.83
11912;BME280;6016;41.928;25.556;2023-02-19T10:22:29;99261.16;;;21.63;31.30
11912;BME280;6016;41.928;25.556;2023-02-19T10:24:57;99133.84;;;20.78;32.66
11912;BME280;6016;41.928;25.556;2023-02-19T10:27:27;99246.25;;;22.01;32.63
11912;BME280;6016;41.928;25.556;2023-02-19T10:29:57;99224.06;;;22.19;31.29
11912;BME280;6016;41.928;25.556;2023-02-19T10:32:26;99194.38;;;22.00;32.36
11912;BME280;6016;41.928;25.556;2023-02-19T10:35:08;99211.63;;;22.25;29.65
11912;BME280;6016;41.928;25.556;2023-02-19T10:37:41;99188.34;;;22.05;29.81
11912;BME280;6016;41.928;25.556;2023-02-19T10:40:14;99227.16;;;22.68;30.53
11912;BME280;6016;41.928;25.556;2023-02-19T10:42:45;99219.34;;;22.60;31.06
11912;BME280;6016;41.928;25.556;2023-02-19T10:45:18;99219.13;;;22.16;30.86
11912;BME280;6016;41.928;25.556;2023-02-19T10:47:48;99210.84;;;22.63;31.97
11912;BME280;6016;41.928;25.556;2023-02-19T10:50:18;99209.75;;;22.32;29.87
11912;BME280;6016;41.928;25.556;2023-02-19T10:52:51;99174.81;;;22.32;29.93
11912;BME280;6016;41.928;25.556;2023-02-19T10:55:24;99198.28;;;22.57;29.63
11912;BME280;6016;41.928;25.556;2023-02-19T10:57:52;99199.56;;;22.80;31.18
11912;BME280;6016;41.928;25.556;2023-02-19T11:00:25;99185.16;;;22.99;31.01
11912;BME280;6016;41.928;25.556;2023-02-19T11:06:02;99184.69;;;22.77;29.80
11912;BME280;6016;41.928;25.556;2023-02-19T11:08:44;99183.06;;;22.37;30.77
11912;BME280;6016;41.928;25.556;2023-02-19T11:11:22;99109.44;;;21.40;30.80
11912;BME280;6016;41.928;25.556;2023-02-19T11:13:49;99044.44;;;21.38;31.29
11912;BME280;6016;41.928;25.556;2023-02-19T11:16:18;99160.00;;;22.16;30.67
11912;BME280;6016;41.928;25.556;2023-02-19T11:18:52;99183.41;;;22.47;30.62
11912;BME280;6016;41.928;25.556;2023-02-19T11:21:26;99186.03;;;22.61;30.14
11912;BME280;6016;41.928;25.556;2023-02-19T11:23:58;99178.81;;;22.55;30.16
11912;BME280;6016;41.928;25.556;2023-02-19T11:26:30;99176.19;;;22.48;30.30
11912;BME280;6016;41.928;25.556;2023-02-19T11:29:00;99114.81;;;22.06;30.61
11912;BME280;6016;41.928;25.556;2023-02-19T11:31:30;99097.50;;;21.95;31.09
11912;BME280;6016;41.928;25.556;2023-02-19T11:34:00;99114.94;;;22.18;30.62
11912;BME280;6016;41.928;25.556;2023-02-19T11:36:32;99117.19;;;21.82;31.53
11912;BME280;6016;41.928;25.556;2023-02-19T11:39:09;99025.03;;;21.29;30.48
11912;BME280;6016;41.928;25.556;2023-02-19T11:41:58;99145.00;;;22.01;31.30
11912;BME280;6016;41.928;25.556;2023-02-19T11:44:41;99140.19;;;22.10;31.68
11912;BME280;6016;41.928;25.556;2023-02-19T11:50:20;99119.38;;;21.99;32.23
11912;BME280;6016;41.928;25.556;2023-02-19T11:52:56;99118.19;;;21.88;32.28
11912;BME280;6016;41.928;25.556;2023-02-19T11:55:36;99126.59;;;22.37;31.56
11912;BME280;6016;41.928;25.556;2023-02-19T11:58:21;99098.25;;;22.41;31.56
11912;BME280;6016;41.928;25.556;2023-02-19T12:01:03;99104.22;;;22.50;31.19
11912;BME280;6016;41.928;25.556;2023-02-19T12:03:46;99047.66;;;21.99;30.91
11912;BME280;6016;41.928;25.556;2023-02-19T12:06:22;99111.34;;;22.31;31.49
11912;BME280;6016;41.928;25.556;2023-02-19T12:09:06;99111.13;;;22.32;31.10
11912;BME280;6016;41.928;25.556;2023-02-19T12:11:48;99113.72;;;22.46;31.19
11912;BME280;6016;41.928;25.556;2023-02-19T12:14:44;98701.19;;;19.81;32.15
11912;BME280;6016;41.928;25.556;2023-02-19T12:17:29;99076.81;;;22.02;30.92
11912;BME280;6016;41.928;25.556;2023-02-19T12:20:12;99107.91;;;22.17;31.03
11912;BME280;6016;41.928;25.556;2023-02-19T12:22:48;99029.09;;;21.52;32.22
11912;BME280;6016;41.928;25.556;2023-02-19T12:25:29;99021.09;;;21.39;31.98
11912;BME280;6016;41.928;25.556;2023-02-19T12:28:29;99093.09;;;22.08;32.17
11912;BME280;6016;41.928;25.556;2023-02-19T12:31:13;99055.31;;;22.02;31.60
11912;BME280;6016;41.928;25.556;2023-02-19T12:33:55;98953.91;;;21.59;31.83
11912;BME280;6016;41.928;25.556;2023-02-19T12:36:36;99084.47;;;22.31;31.18
11912;BME280;6016;41.928;25.556;2023-02-19T12:39:13;99079.28;;;22.36;31.55
11912;BME280;6016;41.928;25.556;2023-02-19T12:41:51;99065.75;;;22.50;31.27
11912;BME280;6016;41.928;25.556;2023-02-19T12:44:25;99024.91;;;22.34;31.16
11912;BME280;6016;41.928;25.556;2023-02-19T12:46:59;99073.00;;;22.49;31.41
11912;BME280;6016;41.928;25.556;2023-02-19T12:49:31;99051.69;;;22.47;31.67
11912;BME280;6016;41.928;25.556;2023-02-19T12:52:06;98990.19;;;22.07;31.45
11912;BME280;6016;41.928;25.556;2023-02-19T12:54:38;99053.50;;;22.54;31.22
11912;BME280;6016;41.928;25.556;2023-02-19T12:57:10;99036.00;;;22.44;30.93
11912;BME280;6016;41.928;25.556;2023-02-19T12:59:44;99067.84;;;22.73;31.73
11912;BME280;6016;41.928;25.556;2023-02-19T13:02:17;99042.97;;;22.77;30.77
11912;BME280;6016;41.928;25.556;2023-02-19T13:04:49;99046.31;;;22.98;31.88
11912;BME280;6016;41.928;25.556;2023-02-19T13:07:26;98994.38;;;22.54;30.87
11912;BME280;6016;41.928;25.556;2023-02-19T13:09:59;98938.47;;;22.37;31.15
11912;BME280;6016;41.928;25.556;2023-02-19T13:12:33;99052.50;;;23.17;31.09
11912;BME280;6016;41.928;25.556;2023-02-19T13:15:03;99051.47;;;23.18;30.54
11912;BME280;6016;41.928;25.556;2023-02-19T13:17:34;99047.59;;;23.14;31.17
11912;BME280;6016;41.928;25.556;2023-02-19T13:20:13;99013.06;;;22.67;31.24
11912;BME280;6016;41.928;25.556;2023-02-19T13:22:47;99044.84;;;22.77;31.79
11912;BME280;6016;41.928;25.556;2023-02-19T13:25:42;99037.13;;;22.81;31.06
11912;BME280;6016;41.928;25.556;2023-02-19T13:28:21;99020.84;;;22.75;31.28
11912;BME280;6016;41.928;25.556;2023-02-19T13:31:06;99030.69;;;22.88;30.61
11912;BME280;6016;41.928;25.556;2023-02-19T13:33:44;99024.06;;;22.66;30.98